Time;durP1;ratioP1;P1;durP2;ratioP2;P2;SDS_P1;SDS_P2;PMS_P1;PMS_P2;Temp;Humidity;BMP_temperature;BMP_pressure;BME280_temperature;BME280_humidity;BME280_pressure;Samples;Min_cycle;Max_cycle;Signal;HPM_P1;HPM_P2
2021/09/02 00:01:20;;;;;;;19.00;15.20;;;9.80;99.90;;;;;;4998606;28;20520;-57
2021/09/02 00:03:47;;;;;;;18.33;13.53;;;9.80;99.90;;;;;;4998383;28;20464;-58
2021/09/02 00:06:14;;;;;;;33.63;15.80;;;9.80;99.90;;;;;;4997922;28;20919;-57
2021/09/02 00:08:42;;;;;;;22.70;15.33;;;9.70;99.90;;;;;;4996950;28;20497;-57
2021/09/02 00:11:09;;;;;;;19.77;14.77;;;9.70;99.90;;;;;;4997979;28;20611;-54
2021/09/02 00:13:36;;;;;;;17.87;14.53;;;9.70;99.90;;;;;;4998427;28;20528;-56
2021/09/02 00:16:03;;;;;;;16.50;13.20;;;9.80;99.90;;;;;;4998619;28;20436;-55
2021/09/02 00:18:32;;;;;;;14.93;13.33;;;9.70;99.90;;;;;;4998552;28;20770;-57
2021/09/02 00:20:59;;;;;;;19.80;15.00;;;9.70;99.90;;;;;;4998036;28;20468;-56
2021/09/02 00:23:26;;;;;;;24.13;15.33;;;9.70;99.90;;;;;;4997938;28;20976;-58
2021/09/02 00:25:53;;;;;;;20.93;14.80;;;9.70;99.90;;;;;;4998184;28;20511;-58
2021/09/02 00:28:20;;;;;;;21.67;15.17;;;9.70;99.90;;;;;;4990614;28;20537;-58
2021/09/02 00:30:47;;;;;;;20.00;13.23;;;9.60;99.90;;;;;;4979004;28;20498;-58
2021/09/02 00:33:16;;;;;;;23.03;15.47;;;9.50;99.90;;;;;;4978251;28;20493;-58
2021/09/02 00:35:45;;;;;;;21.43;15.30;;;9.50;99.90;;;;;;4978828;28;20903;-58
2021/09/02 00:38:12;;;;;;;19.20;13.90;;;9.50;99.90;;;;;;4978733;28;20469;-58
2021/09/02 00:40:39;;;;;;;19.17;15.23;;;9.50;99.90;;;;;;4978395;28;20551;-58
2021/09/02 00:43:06;;;;;;;20.87;14.97;;;9.50;99.90;;;;;;4978091;28;20476;-58
2021/09/02 00:45:34;;;;;;;20.93;14.80;;;9.50;99.90;;;;;;4978368;28;20902;-58
2021/09/02 00:48:01;;;;;;;18.93;14.80;;;9.50;99.90;;;;;;4978332;28;20509;-58
2021/09/02 00:50:28;;;;;;;18.47;12.70;;;9.40;99.90;;;;;;4978631;28;20976;-58
2021/09/02 00:52:57;;;;;;;19.27;13.70;;;9.40;99.90;;;;;;4978118;28;20533;-58
2021/09/02 00:55:24;;;;;;;17.87;13.57;;;9.50;99.90;;;;;;4978292;28;20462;-56
2021/09/02 00:57:51;;;;;;;21.17;14.03;;;9.40;99.90;;;;;;4980963;28;20496;-55
2021/09/02 01:00:19;;;;;;;17.70;13.30;;;9.40;99.90;;;;;;4997792;28;20535;-57
2021/09/02 01:02:47;;;;;;;16.93;13.40;;;9.40;99.90;;;;;;4997807;28;20484;-57
2021/09/02 01:05:15;;;;;;;17.93;12.67;;;9.40;99.90;;;;;;4997830;28;20469;-54
2021/09/02 01:07:43;;;;;;;19.97;14.70;;;9.40;99.90;;;;;;4997465;28;20472;-56
2021/09/02 01:10:15;;;;;;;16.70;12.67;;;9.30;99.90;;;;;;4997543;28;20496;-58
2021/09/02 01:12:44;;;;;;;19.30;13.67;;;9.30;99.90;;;;;;4997932;28;20504;-58
2021/09/02 01:15:16;;;;;;;18.80;14.23;;;9.30;99.90;;;;;;4997379;28;20535;-58
2021/09/02 01:17:44;;;;;;;18.77;13.47;;;9.30;99.90;;;;;;4997522;28;20532;-58
2021/09/02 01:20:16;;;;;;;18.00;13.70;;;9.20;99.90;;;;;;4997479;28;20559;-58
2021/09/02 01:22:46;;;;;;;18.80;14.13;;;9.20;99.90;;;;;;4997652;28;20527;-58
2021/09/02 01:25:16;;;;;;;18.70;12.63;;;9.20;99.90;;;;;;4997532;28;20548;-58
2021/09/02 01:27:46;;;;;;;16.17;13.17;;;9.20;99.90;;;;;;4984293;28;20525;-58
2021/09/02 01:30:18;;;;;;;16.43;13.17;;;9.20;99.90;;;;;;4978034;28;20529;-58
2021/09/02 01:32:47;;;;;;;17.40;12.43;;;9.20;99.90;;;;;;4978398;28;20552;-58
2021/09/02 01:35:16;;;;;;;16.30;13.00;;;9.10;99.90;;;;;;4988542;28;20465;-58
2021/09/02 01:37:44;;;;;;;23.17;13.07;;;9.10;99.90;;;;;;4997346;28;20556;-58
2021/09/02 01:40:16;;;;;;;17.20;14.40;;;9.00;99.90;;;;;;4997815;28;20465;-58
2021/09/02 01:42:43;;;;;;;17.03;13.30;;;9.00;99.90;;;;;;4997712;28;20904;-58
2021/09/02 01:45:11;;;;;;;17.20;13.40;;;9.10;99.90;;;;;;4997163;28;20567;-58
2021/09/02 01:47:38;;;;;;;19.23;14.03;;;9.00;99.90;;;;;;4997594;28;20500;-58
2021/09/02 01:50:08;;;;;;;18.90;12.70;;;9.00;99.90;;;;;;4997138;28;20529;-58
2021/09/02 01:52:35;;;;;;;20.27;12.60;;;9.00;99.90;;;;;;4996849;28;20596;-58
2021/09/02 01:55:03;;;;;;;14.80;11.67;;;9.00;99.90;;;;;;4996662;28;20932;-58
2021/09/02 01:57:32;;;;;;;19.20;12.60;;;9.00;99.90;;;;;;4996902;28;20500;-56
2021/09/02 01:59:59;;;;;;;18.57;13.20;;;9.00;99.90;;;;;;4997192;28;20444;-58
2021/09/02 02:02:26;;;;;;;14.73;11.83;;;9.00;99.90;;;;;;4997234;28;20940;-55
2021/09/02 02:04:53;;;;;;;16.17;12.10;;;8.90;99.90;;;;;;5000737;28;20471;-58
2021/09/02 02:07:20;;;;;;;19.23;14.80;;;8.90;99.90;;;;;;5000440;28;20778;-55
2021/09/02 02:09:47;;;;;;;20.10;12.30;;;8.90;99.90;;;;;;4998505;28;20916;-58
2021/09/02 02:12:14;;;;;;;17.20;11.83;;;8.80;99.90;;;;;;5000559;28;20497;-57
2021/09/02 02:51:30;;;;;;;21.47;13.30;;;8.60;99.90;;;;;;4997134;28;20526;-58
2021/09/02 02:53:57;;;;;;;17.97;13.27;;;8.60;99.90;;;;;;4999982;28;20501;-59
2021/09/02 02:56:24;;;;;;;19.27;13.87;;;8.60;99.90;;;;;;4999681;28;20464;-59
2021/09/02 02:58:51;;;;;;;18.13;13.67;;;8.60;99.90;;;;;;4999408;28;20504;-59
2021/09/02 03:01:18;;;;;;;20.27;13.43;;;8.50;99.90;;;;;;4999795;28;20906;-60
2021/09/02 03:03:48;;;;;;;18.07;13.00;;;8.50;99.90;;;;;;4999651;28;20920;-60
2021/09/02 03:06:15;;;;;;;16.93;12.87;;;8.60;99.90;;;;;;4999207;28;20469;-60
2021/09/02 03:08:43;;;;;;;20.10;13.47;;;8.60;99.90;;;;;;4999279;28;20461;-61
2021/09/02 03:11:12;;;;;;;19.30;14.60;;;8.60;99.90;;;;;;4998979;28;20984;-61
2021/09/02 03:50:37;;;;;;;21.70;13.83;;;9.00;99.90;;;;;;4996371;28;20500;-61
2021/09/02 03:53:04;;;;;;;17.77;13.43;;;9.00;99.90;;;;;;4998958;28;20572;-61
2021/09/02 03:55:31;;;;;;;17.03;13.37;;;9.10;99.90;;;;;;4998302;28;20925;-61
2021/09/02 03:57:58;;;;;;;19.77;13.27;;;9.10;99.90;;;;;;4998723;28;20878;-61
2021/09/02 04:00:24;;;;;;;24.00;14.10;;;9.00;99.90;;;;;;4997731;28;20827;-61
2021/09/02 04:02:51;;;;;;;17.53;12.30;;;9.00;99.90;;;;;;4997968;28;20447;-61
2021/09/02 04:05:19;;;;;;;21.50;14.73;;;9.00;99.90;;;;;;4994683;28;20860;-61
2021/09/02 04:07:47;;;;;;;16.00;13.33;;;9.00;99.90;;;;;;4994426;28;20563;-62
2021/09/02 04:10:14;;;;;;;26.53;13.43;;;9.00;99.90;;;;;;4994780;28;20848;-61
2021/09/02 04:12:41;;;;;;;18.70;11.93;;;9.00;99.90;;;;;;4997270;28;20501;-61
2021/09/02 04:15:09;;;;;;;22.07;13.70;;;8.90;99.90;;;;;;4996872;28;20468;-61
2021/09/02 04:17:36;;;;;;;17.90;13.60;;;8.80;99.90;;;;;;4998069;28;20505;-61
2021/09/02 04:20:04;;;;;;;15.33;12.67;;;8.80;99.90;;;;;;4995154;28;20889;-61
2021/09/02 04:22:31;;;;;;;20.60;13.23;;;8.70;99.90;;;;;;4996400;28;20913;-61
2021/09/02 04:24:59;;;;;;;18.67;13.37;;;8.70;99.90;;;;;;4996482;28;20548;-61
2021/09/02 04:27:26;;;;;;;22.87;13.97;;;8.70;99.90;;;;;;4985196;28;20557;-61
2021/09/02 04:29:53;;;;;;;18.30;13.73;;;8.70;99.90;;;;;;4977184;28;20568;-61
2021/09/02 04:32:20;;;;;;;21.50;13.80;;;8.70;99.90;;;;;;4978100;28;20517;-61
2021/09/02 04:34:47;;;;;;;21.00;13.43;;;8.70;99.90;;;;;;4977811;28;20486;-61
2021/09/02 04:37:16;;;;;;;19.37;14.67;;;8.70;99.90;;;;;;4978018;28;20755;-62
2021/09/02 04:39:43;;;;;;;27.77;13.07;;;8.60;99.90;;;;;;4978218;28;20504;-61
2021/09/02 04:42:11;;;;;;;25.10;14.83;;;8.70;99.90;;;;;;4984291;28;20917;-62
2021/09/02 04:44:40;;;;;;;25.83;15.43;;;8.70;99.90;;;;;;4998252;28;20476;-62
2021/09/02 04:47:09;;;;;;;21.97;16.47;;;8.60;99.90;;;;;;4997889;28;20559;-62
2021/09/02 04:49:39;;;;;;;46.73;29.80;;;8.60;99.90;;;;;;4997476;28;20497;-61
2021/09/02 04:52:06;;;;;;;45.67;29.73;;;8.60;99.90;;;;;;4997766;28;20591;-62
2021/09/02 04:54:33;;;;;;;33.50;22.47;;;8.60;99.90;;;;;;4998159;28;20508;-61
2021/09/02 04:57:00;;;;;;;33.83;23.37;;;8.60;99.90;;;;;;4998245;28;20501;-61
2021/09/02 04:59:33;;;;;;;39.60;23.23;;;8.50;99.90;;;;;;4997624;28;20552;-61
2021/09/02 05:02:00;;;;;;;28.30;17.13;;;8.50;99.90;;;;;;4997818;28;20469;-61
2021/09/02 05:04:27;;;;;;;32.53;20.00;;;8.50;99.90;;;;;;4998221;28;20457;-61
2021/09/02 05:06:54;;;;;;;27.47;18.80;;;8.50;99.90;;;;;;4995899;28;20481;-61
2021/09/02 05:09:21;;;;;;;28.73;18.40;;;8.50;99.90;;;;;;4997836;28;20473;-61
2021/09/02 05:11:48;;;;;;;30.10;21.03;;;8.50;99.90;;;;;;4996874;28;21000;-61
2021/09/02 05:14:15;;;;;;;28.70;19.30;;;8.60;99.90;;;;;;4997555;28;20469;-62
2021/09/02 05:16:43;;;;;;;27.70;18.47;;;8.60;99.90;;;;;;4997128;28;20800;-61
2021/09/02 05:19:10;;;;;;;34.03;18.50;;;8.60;99.90;;;;;;4995713;28;20523;-62
2021/09/02 05:21:37;;;;;;;23.87;15.97;;;8.70;99.90;;;;;;4988326;28;20483;-62
2021/09/02 05:24:05;;;;;;;24.10;17.57;;;8.70;99.90;;;;;;4982727;28;20537;-62
2021/09/02 05:26:32;;;;;;;26.87;16.60;;;8.70;99.90;;;;;;4989031;28;20543;-63
2021/09/02 05:28:59;;;;;;;25.20;15.70;;;8.80;99.90;;;;;;4988341;28;20447;-62
2021/09/02 05:31:27;;;;;;;29.03;17.87;;;8.80;99.90;;;;;;4984081;28;20848;-62
2021/09/02 05:33:55;;;;;;;29.90;18.87;;;8.90;99.90;;;;;;4987559;28;20473;-62
2021/09/02 05:36:22;;;;;;;26.90;18.47;;;8.90;99.90;;;;;;4992913;28;20481;-62
2021/09/02 05:38:49;;;;;;;34.03;18.10;;;9.00;99.90;;;;;;4978800;28;20556;-62
2021/09/02 05:41:16;;;;;;;27.63;18.73;;;9.20;99.90;;;;;;4981271;28;20925;-62
2021/09/02 05:43:43;;;;;;;29.50;20.20;;;9.30;99.90;;;;;;4981079;28;20497;-62
2021/09/02 05:46:19;;;;;;;29.73;19.00;;;9.40;99.90;;;;;;4981147;28;20472;-62
2021/09/02 05:48:45;;;;;;;33.27;18.47;;;9.50;99.90;;;;;;4981565;28;20583;-62
2021/09/02 05:51:14;;;;;;;24.50;18.43;;;9.60;99.90;;;;;;4981507;28;20584;-62
2021/09/02 05:53:41;;;;;;;26.60;17.53;;;9.80;99.90;;;;;;4981253;28;20508;-62
2021/09/02 05:56:10;;;;;;;24.60;16.70;;;9.90;99.90;;;;;;4981749;28;20502;-62
2021/09/02 05:58:37;;;;;;;19.53;15.80;;;10.00;99.90;;;;;;4981656;28;20465;-62
2021/09/02 06:01:03;;;;;;;24.87;16.90;;;10.10;99.90;;;;;;4981485;28;20477;-63
2021/09/02 06:03:30;;;;;;;24.10;15.00;;;10.40;99.90;;;;;;4980617;28;20560;-63
2021/09/02 06:05:57;;;;;;;20.73;14.20;;;10.50;99.90;;;;;;4981334;28;20477;-63
2021/09/02 06:08:27;;;;;;;25.07;15.10;;;10.70;99.90;;;;;;4981360;28;20493;-63
2021/09/02 06:10:54;;;;;;;16.90;12.47;;;10.80;99.90;;;;;;4981708;28;20521;-63
2021/09/02 06:13:21;;;;;;;18.20;15.13;;;10.90;99.90;;;;;;4981623;28;20501;-63
2021/09/02 06:15:48;;;;;;;21.17;15.23;;;11.10;99.90;;;;;;4980960;28;20500;-63
2021/09/02 06:18:15;;;;;;;22.80;14.77;;;11.20;99.90;;;;;;4981056;28;20483;-63
2021/09/02 06:20:44;;;;;;;27.30;17.97;;;11.30;99.90;;;;;;4981359;28;20497;-63
2021/09/02 06:23:11;;;;;;;23.40;16.90;;;11.30;99.90;;;;;;4980766;28;20466;-63
2021/09/02 06:25:43;;;;;;;19.37;15.53;;;11.50;99.90;;;;;;4998821;28;20560;-63
2021/09/02 06:28:10;;;;;;;21.10;17.37;;;11.60;99.90;;;;;;4994115;28;20461;-63
2021/09/02 06:30:37;;;;;;;20.03;15.63;;;11.80;99.90;;;;;;4981360;28;20447;-63
2021/09/02 06:33:05;;;;;;;20.73;16.03;;;12.20;99.90;;;;;;4982704;28;20596;-64
2021/09/02 06:35:35;;;;;;;21.83;15.30;;;12.50;99.90;;;;;;4980693;28;20466;-63
2021/09/02 06:38:02;;;;;;;31.43;18.80;;;12.80;99.90;;;;;;4980853;28;20461;-63
2021/09/02 06:40:29;;;;;;;35.33;19.80;;;13.20;99.90;;;;;;4980932;28;20493;-64
2021/09/02 06:42:57;;;;;;;28.60;19.37;;;13.40;99.90;;;;;;4980893;28;20462;-63
2021/09/02 06:45:27;;;;;;;35.43;19.60;;;13.80;99.90;;;;;;4980582;28;20911;-63
2021/09/02 06:47:54;;;;;;;30.77;19.50;;;14.00;99.90;;;;;;4983043;28;20457;-63
2021/09/02 06:50:21;;;;;;;32.83;19.97;;;14.20;99.90;;;;;;4999507;28;20984;-63
2021/09/02 06:52:48;;;;;;;34.00;21.30;;;14.40;99.90;;;;;;4998648;28;20591;-63
2021/09/02 06:55:15;;;;;;;36.47;21.03;;;14.50;99.90;;;;;;4999687;28;20523;-63
2021/09/02 06:57:42;;;;;;;31.87;20.93;;;14.70;99.90;;;;;;4999593;28;20556;-63
2021/09/02 07:00:12;;;;;;;23.40;18.90;;;14.90;99.90;;;;;;4999916;28;20906;-63
2021/09/02 07:02:39;;;;;;;35.30;22.60;;;14.90;1.00;;;;;;5000092;28;20460;-62
2021/09/02 07:05:08;;;;;;;22.73;17.77;;;15.10;99.90;;;;;;4999755;28;20504;-62
2021/09/02 07:07:35;;;;;;;32.33;20.20;;;15.20;99.90;;;;;;4999318;28;20465;-62
2021/09/02 07:10:02;;;;;;;25.50;18.43;;;15.30;99.90;;;;;;5000081;28;20515;-62
2021/09/02 07:12:29;;;;;;;24.20;18.13;;;15.60;99.90;;;;;;4999520;28;20528;-62
2021/09/02 07:14:56;;;;;;;23.20;18.00;;;15.90;99.90;;;;;;4999996;28;20499;-62
2021/09/02 07:17:24;;;;;;;25.97;18.40;;;16.10;99.90;;;;;;4999762;28;20480;-62
2021/09/02 07:19:57;;;;;;;25.43;18.83;;;16.40;99.90;;;;;;4999248;28;20493;-62
2021/09/02 07:22:26;;;;;;;24.40;18.40;;;16.60;99.90;;;;;;4999318;28;20471;-62
2021/09/02 07:24:53;;;;;;;37.13;18.77;;;16.80;81.20;;;;;;4986372;28;20458;-62
2021/09/02 07:27:20;;;;;;;28.20;19.60;;;17.00;1.00;;;;;;4989307;28;20725;-62
2021/09/02 07:29:46;;;;;;;26.47;19.27;;;17.40;1.00;;;;;;4999367;28;20559;-62
2021/09/02 07:32:13;;;;;;;23.10;16.77;;;17.50;1.00;;;;;;4999038;28;20535;-62
2021/09/02 07:34:43;;;;;;;24.50;17.57;;;17.60;1.00;;;;;;4997430;28;20940;-62
2021/09/02 07:37:10;;;;;;;28.10;18.13;;;18.10;1.00;;;;;;4997603;28;20908;-62
2021/09/02 07:39:38;;;;;;;18.80;16.57;;;18.30;1.00;;;;;;4998863;28;20559;-61
2021/09/02 07:42:05;;;;;;;17.40;15.50;;;18.50;1.00;;;;;;4998791;28;20467;-61
2021/09/02 07:44:34;;;;;;;16.53;14.83;;;18.80;1.00;;;;;;4998826;28;20520;-61
2021/09/02 07:47:01;;;;;;;17.60;13.80;;;19.00;1.00;;;;;;4999086;28;20468;-61
2021/09/02 07:49:28;;;;;;;14.30;12.37;;;19.10;1.00;;;;;;4998206;28;20524;-61
2021/09/02 07:51:56;;;;;;;17.13;12.27;;;19.10;1.00;;;;;;4998304;28;20532;-61
2021/09/02 07:54:23;;;;;;;13.27;11.83;;;19.40;1.00;;;;;;4998678;28;20560;-61
2021/09/02 07:56:50;;;;;;;15.97;11.93;;;19.50;1.00;;;;;;4998949;28;20504;-60
2021/09/02 07:59:17;;;;;;;16.00;11.17;;;19.80;1.00;;;;;;4998203;28;20812;-60
2021/09/02 08:01:44;;;;;;;13.93;10.90;;;20.00;1.00;;;;;;4997656;28;20535;-60
2021/09/02 08:04:12;;;;;;;12.43;10.83;;;20.00;1.00;;;;;;4998344;28;20547;-60
2021/09/02 08:06:41;;;;;;;13.80;10.13;;;20.20;1.00;;;;;;4998617;28;20897;-60
2021/09/02 08:09:09;;;;;;;13.23;10.70;;;20.20;1.00;;;;;;4997032;28;20465;-59
2021/09/02 08:11:39;;;;;;;11.47;10.27;;;20.40;1.00;;;;;;4991506;28;20583;-59
2021/09/02 08:47:52;;;;;;;11.57;10.33;;;22.30;1.00;;;;;;3702179;23;20787;-56
2021/09/02 08:50:26;;;;;;;14.07;11.63;;;22.40;1.00;;;;;;5003504;28;20488;-57
2021/09/02 08:52:55;;;;;;;12.97;10.37;;;22.70;1.00;;;;;;5006895;28;20912;-55
2021/09/02 08:55:25;;;;;;;14.20;10.50;;;22.70;1.00;;;;;;5017378;28;20478;-59
2021/09/02 08:57:56;;;;;;;15.87;10.87;;;22.60;1.00;;;;;;5007969;28;20491;-58
2021/09/02 09:00:25;;;;;;;13.23;11.10;;;22.90;1.00;;;;;;5003645;28;20548;-56
2021/09/02 09:02:59;;;;;;;14.90;10.13;;;22.20;1.00;;;;;;4997964;28;20483;-59
2021/09/02 09:05:29;;;;;;;12.40;10.20;;;22.40;1.00;;;;;;4997542;28;20564;-57
2021/09/02 09:07:56;;;;;;;14.17;10.90;;;21.80;1.00;;;;;;4997749;28;20956;-57
2021/09/02 09:10:28;;;;;;;12.07;9.73;;;21.40;1.00;;;;;;5007111;28;20897;-56
2021/09/02 09:13:04;;;;;;;12.70;11.20;;;21.10;1.00;;;;;;5002020;28;20579;-56
2021/09/02 09:15:33;;;;;;;11.67;10.07;;;21.00;1.00;;;;;;5005277;28;20468;-56
2021/09/02 09:18:17;;;;;;;14.27;10.90;;;20.70;1.00;;;;;;5014399;28;20506;-59
2021/09/02 09:20:46;;;;;;;12.47;10.90;;;20.50;1.00;;;;;;5009616;28;20519;-53
2021/09/02 09:23:14;;;;;;;13.83;11.20;;;20.00;1.00;;;;;;5012438;28;20519;-59
2021/09/02 09:25:46;;;;;;;16.90;11.13;;;20.00;1.00;;;;;;5006390;28;20489;-55
2021/09/02 09:28:13;;;;;;;17.90;11.37;;;20.70;1.00;;;;;;5010959;28;20514;-56
2021/09/02 09:30:40;;;;;;;20.50;12.27;;;20.80;1.00;;;;;;5009607;28;20734;-57
2021/09/02 09:33:11;;;;;;;27.17;11.97;;;21.00;1.00;;;;;;5005598;28;20499;-57
2021/09/02 10:10:01;;;;;;;12.50;11.20;;;22.90;1.00;;;;;;5521910;23;20469;-53
2021/09/02 10:12:34;;;;;;;11.80;10.60;;;22.00;1.00;;;;;;4984499;28;20512;-56
2021/09/02 10:15:04;;;;;;;11.63;10.40;;;22.10;1.00;;;;;;4997517;28;20457;-56
2021/09/02 10:17:34;;;;;;;12.33;11.03;;;21.80;1.00;;;;;;4992991;28;20492;-55
2021/09/02 10:20:02;;;;;;;15.47;12.00;;;22.40;1.00;;;;;;5000756;28;20815;-54
2021/09/02 10:22:39;;;;;;;12.97;11.67;;;22.80;1.00;;;;;;5000305;28;20491;-51
2021/09/02 10:25:40;;;;;;;18.10;12.40;;;22.80;1.00;;;;;;4999681;28;20474;-54
2021/09/02 10:28:09;;;;;;;18.23;12.80;;;22.40;1.00;;;;;;4980054;28;20532;-54
2021/09/02 10:30:42;;;;;;;14.37;11.73;;;22.40;1.00;;;;;;4980201;28;20836;-54
2021/09/02 10:33:45;;;;;;;14.70;13.00;;;22.80;1.00;;;;;;4980016;28;20504;-51
2021/09/02 10:36:49;;;;;;;13.23;11.90;;;22.80;1.00;;;;;;4979021;28;20497;-55
2021/09/02 10:39:41;;;;;;;13.27;11.63;;;23.50;1.00;;;;;;4960071;29;20506;-55
2021/09/02 10:42:12;;;;;;;11.67;10.40;;;23.20;1.00;;;;;;4968826;28;20532;-55
2021/09/02 10:44:53;;;;;;;13.40;11.07;;;23.60;1.00;;;;;;4980630;28;20839;-55
2021/09/02 11:23:12;;;;;;;8.20;7.33;;;25.10;99.90;;;;;;4864418;23;20584;-56
2021/09/02 11:25:44;;;;;;;12.27;7.73;;;24.80;99.90;;;;;;4997611;28;20544;-56
2021/09/02 11:28:14;;;;;;;8.20;7.40;;;24.60;99.90;;;;;;4982658;28;20841;-55
2021/09/02 11:30:41;;;;;;;10.20;8.63;;;24.40;99.90;;;;;;4979716;28;20564;-55
2021/09/02 12:07:52;;;;;;;10.40;9.10;;;24.50;99.90;;;;;;6179822;22;1378651;-56
2021/09/02 12:10:20;;;;;;;10.80;9.53;;;25.70;99.90;;;;;;6196759;23;20234;-55
2021/09/02 12:12:48;;;;;;;11.90;10.23;;;24.90;99.90;;;;;;6196017;23;20423;-57
2021/09/02 12:15:27;;;;;;;14.23;9.63;;;24.70;99.90;;;;;;6195372;23;20509;-48
2021/09/02 12:18:09;;;;;;;10.80;9.70;;;24.60;99.90;;;;;;6193678;23;20708;-58
2021/09/02 12:20:39;;;;;;;11.57;10.50;;;24.40;99.90;;;;;;6176785;23;20427;-56
2021/09/02 12:23:24;;;;;;;12.47;11.27;;;23.90;99.90;;;;;;6192465;23;20468;-56
2021/09/02 12:25:59;;;;;;;11.17;10.07;;;23.80;99.90;;;;;;6193477;23;20458;-56
2021/09/02 12:28:35;;;;;;;11.60;10.20;;;23.80;99.90;;;;;;6193602;23;20414;-54
2021/09/02 12:31:20;;;;;;;11.30;10.10;;;23.80;99.90;;;;;;6195624;23;20419;-57
2021/09/02 13:07:58;;;;;;;13.30;9.23;;;26.30;99.90;;;;;;6179177;23;20764;-56
2021/09/02 13:10:29;;;;;;;17.20;8.53;;;26.30;99.90;;;;;;6188465;23;20437;-53
2021/09/02 13:47:32;;;;;;;10.73;9.70;;;25.20;99.90;;;;;;6163655;23;20537;-58
2021/09/02 13:50:01;;;;;;;11.30;9.40;;;24.60;99.90;;;;;;6188267;23;20443;-52
2021/09/02 13:52:36;;;;;;;9.63;8.53;;;24.60;99.90;;;;;;6187435;23;20420;-58
2021/09/02 13:55:04;;;;;;;9.70;8.87;;;24.60;99.90;;;;;;6188225;23;20419;-55
2021/09/02 13:57:35;;;;;;;9.97;8.83;;;24.10;99.90;;;;;;6187904;23;20420;-54
2021/09/02 14:00:23;;;;;;;9.87;8.10;;;23.90;99.90;;;;;;6186771;23;20497;-56
2021/09/02 14:02:52;;;;;;;9.63;8.50;;;24.60;99.90;;;;;;6149602;23;20456;-57
2021/09/02 14:05:19;;;;;;;14.00;10.13;;;24.50;99.90;;;;;;6187256;23;20862;-57
2021/09/02 14:42:19;;;;;;;14.70;13.27;;;26.60;99.90;;;;;;6201283;23;20469;-57
2021/09/02 14:44:52;;;;;;;15.60;12.63;;;25.80;99.90;;;;;;6217230;23;20521;-54
2021/09/02 15:21:46;;;;;;;13.60;12.37;;;25.30;99.90;;;;;;6202788;23;20466;-59
2021/09/02 15:24:13;;;;;;;14.13;12.70;;;25.60;99.90;;;;;;6217550;23;20843;-56
2021/09/02 15:26:40;;;;;;;19.23;13.10;;;25.60;99.90;;;;;;6217200;23;20962;-55
2021/09/02 15:29:07;;;;;;;14.33;11.87;;;25.70;99.90;;;;;;6217310;23;20925;-57
2021/09/02 15:31:38;;;;;;;13.53;11.57;;;25.90;99.90;;;;;;6217032;23;20529;-59
2021/09/02 15:34:11;;;;;;;14.10;12.70;;;26.10;99.90;;;;;;6217336;23;20517;-57
2021/09/02 15:36:41;;;;;;;14.70;13.20;;;26.30;99.90;;;;;;6216782;23;20852;-59
2021/09/02 15:39:09;;;;;;;16.80;13.47;;;26.30;99.90;;;;;;6217399;23;20851;-59
2021/09/02 15:41:36;;;;;;;16.70;13.07;;;26.20;99.90;;;;;;6216652;23;20422;-57
2021/09/02 15:44:03;;;;;;;14.33;13.03;;;25.60;99.90;;;;;;6217076;23;20913;-58
2021/09/02 15:46:33;;;;;;;14.70;13.07;;;25.20;99.90;;;;;;6216470;23;20469;-58
2021/09/02 15:49:01;;;;;;;14.80;13.27;;;24.90;99.90;;;;;;6216768;23;20462;-58
2021/09/02 15:51:31;;;;;;;16.57;13.57;;;24.80;99.90;;;;;;6217095;23;20422;-58
2021/09/02 15:53:58;;;;;;;13.97;12.63;;;24.70;99.90;;;;;;6217410;23;20839;-58
2021/09/02 15:56:29;;;;;;;13.50;11.90;;;24.70;99.90;;;;;;6216519;23;20453;-58
2021/09/02 15:58:58;;;;;;;15.10;13.63;;;24.60;99.90;;;;;;6218064;23;20422;-58
2021/09/02 16:01:28;;;;;;;15.13;13.47;;;24.50;99.90;;;;;;6217030;23;20792;-57
2021/09/02 16:03:55;;;;;;;14.17;12.63;;;24.50;99.90;;;;;;6217906;23;20458;-58
2021/09/02 16:06:27;;;;;;;13.77;12.47;;;24.60;99.90;;;;;;6216995;23;20423;-58
2021/09/02 16:08:55;;;;;;;14.87;13.37;;;24.40;99.90;;;;;;6218036;23;20419;-58
2021/09/02 16:11:23;;;;;;;17.70;13.60;;;24.00;99.90;;;;;;6216550;23;20418;-58
2021/09/02 16:13:53;;;;;;;14.93;13.43;;;24.00;99.90;;;;;;6216642;23;20521;-56
2021/09/02 16:16:20;;;;;;;16.47;13.93;;;23.90;99.90;;;;;;6217326;23;20447;-58
2021/09/02 16:18:49;;;;;;;14.57;13.00;;;23.80;99.90;;;;;;6216295;23;20442;-57
2021/09/02 16:21:18;;;;;;;14.70;13.10;;;23.60;99.90;;;;;;6216620;23;20439;-57
2021/09/02 16:23:47;;;;;;;14.20;12.80;;;23.40;99.90;;;;;;6216025;23;20860;-57
2021/09/02 16:26:23;;;;;;;16.40;14.33;;;23.40;99.90;;;;;;6216963;23;20474;-56
2021/09/02 16:28:52;;;;;;;14.77;13.10;;;23.50;99.90;;;;;;6217277;23;20493;-55
2021/09/02 16:31:19;;;;;;;14.27;12.87;;;23.30;99.90;;;;;;6216603;23;20492;-57
2021/09/02 16:33:47;;;;;;;14.80;13.30;;;23.40;99.90;;;;;;6216004;23;20419;-55
2021/09/02 16:36:15;;;;;;;16.00;13.50;;;23.30;99.90;;;;;;6216221;23;20450;-54
2021/09/02 16:38:45;;;;;;;13.87;12.43;;;23.10;99.90;;;;;;6216005;23;20431;-54
2021/09/02 16:41:14;;;;;;;15.90;14.30;;;23.10;1.00;;;;;;6216559;23;20502;-55
2021/09/02 16:43:41;;;;;;;15.30;13.50;;;23.10;99.90;;;;;;6218563;23;20516;-58
2021/09/02 16:46:12;;;;;;;14.33;12.40;;;23.10;1.00;;;;;;6218984;23;20422;-57
2021/09/02 16:48:42;;;;;;;15.57;12.63;;;23.10;1.00;;;;;;6218312;23;20836;-58
2021/09/02 16:51:12;;;;;;;14.93;13.20;;;23.10;1.00;;;;;;6218010;23;20427;-58
2021/09/02 16:53:39;;;;;;;14.93;13.33;;;23.10;1.00;;;;;;6218823;23;20894;-56
2021/09/02 16:56:09;;;;;;;14.90;13.37;;;23.00;1.00;;;;;;6218702;23;20477;-58
2021/09/02 16:58:36;;;;;;;15.93;11.67;;;22.80;1.00;;;;;;6218110;23;20473;-58
2021/09/02 17:01:03;;;;;;;13.57;11.67;;;22.70;1.00;;;;;;6218408;23;20472;-58
2021/09/02 17:03:34;;;;;;;14.00;12.43;;;22.60;1.00;;;;;;6218182;23;20419;-52
2021/09/02 17:06:02;;;;;;;15.53;12.47;;;22.50;1.00;;;;;;6217685;23;20462;-58
2021/09/02 17:08:30;;;;;;;15.23;13.37;;;22.20;1.00;;;;;;6218716;23;20876;-58
2021/09/02 17:10:57;;;;;;;17.50;14.13;;;22.20;1.00;;;;;;6218280;23;20423;-56
2021/09/02 17:13:25;;;;;;;15.20;13.63;;;22.00;1.00;;;;;;6217691;23;20429;-55
2021/09/02 17:15:58;;;;;;;14.47;12.90;;;21.90;1.00;;;;;;6218147;23;20423;-54
2021/09/02 17:18:27;;;;;;;15.40;13.47;;;21.70;1.00;;;;;;6217722;23;20427;-54
2021/09/02 17:20:56;;;;;;;16.33;13.83;;;21.60;1.00;;;;;;6218331;23;20450;-57
2021/09/02 17:23:23;;;;;;;18.60;13.47;;;21.40;1.00;;;;;;6219153;23;20777;-57
2021/09/02 17:25:50;;;;;;;14.97;13.40;;;21.30;1.00;;;;;;6218716;23;20711;-57
2021/09/02 18:02:45;;;;;;;14.70;12.23;;;19.70;1.00;;;;;;6201325;23;20882;-56
2021/09/02 18:05:12;;;;;;;12.57;11.37;;;19.50;1.00;;;;;;6218761;23;20728;-56
2021/09/02 18:07:39;;;;;;;12.03;10.67;;;19.50;1.00;;;;;;6218743;23;20832;-54
2021/09/02 18:10:08;;;;;;;13.97;11.70;;;19.30;1.00;;;;;;6218009;23;20518;-57
2021/09/02 18:12:35;;;;;;;13.80;11.83;;;19.30;1.00;;;;;;6217521;23;20470;-55
2021/09/02 18:49:43;;;;;;;16.13;13.20;;;18.10;1.00;;;;;;6214591;23;20461;-53
2021/09/02 18:52:10;;;;;;;15.03;12.83;;;18.10;1.00;;;;;;6218417;23;20418;-57
2021/09/02 18:54:40;;;;;;;14.17;12.67;;;18.10;10.00;;;;;;6217930;23;20423;-56
2021/09/02 18:57:12;;;;;;;12.47;11.17;;;18.00;24.50;;;;;;6216983;23;20454;-52
2021/09/02 18:59:39;;;;;;;15.63;11.60;;;17.90;45.90;;;;;;6217376;23;20477;-56
2021/09/02 19:02:14;;;;;;;14.53;13.10;;;17.90;93.60;;;;;;6218224;23;20771;-56
2021/09/02 19:04:49;;;;;;;14.10;12.67;;;17.90;97.70;;;;;;6218113;23;20422;-55
2021/09/02 19:07:17;;;;;;;13.47;12.13;;;17.80;95.70;;;;;;6217717;23;20420;-54
2021/09/02 19:09:47;;;;;;;14.60;12.87;;;17.70;99.90;;;;;;6217898;23;20419;-56
2021/09/02 19:12:18;;;;;;;16.20;12.83;;;17.60;99.90;;;;;;6218121;23;20429;-52
2021/09/02 19:14:51;;;;;;;14.53;13.03;;;17.50;99.90;;;;;;6217999;23;20521;-52
2021/09/02 19:17:21;;;;;;;13.30;12.00;;;17.50;99.90;;;;;;6216796;23;20461;-49
2021/09/02 19:20:00;;;;;;;15.87;11.87;;;17.40;99.90;;;;;;6216559;23;20418;-53
2021/09/02 19:22:34;;;;;;;14.97;13.37;;;17.30;99.90;;;;;;6215672;23;20522;-48
2021/09/02 19:25:01;;;;;;;13.67;12.37;;;17.20;99.90;;;;;;6216163;23;20415;-53
2021/09/02 19:27:31;;;;;;;15.43;12.77;;;17.10;1.00;;;;;;6215997;23;20472;-57
2021/09/02 19:30:04;;;;;;;14.40;12.53;;;17.00;1.00;;;;;;6216457;23;20902;-54
2021/09/02 19:32:39;;;;;;;16.43;14.20;;;17.00;99.90;;;;;;6216676;23;20458;-57
2021/09/02 19:35:12;;;;;;;14.70;13.30;;;16.90;99.90;;;;;;6217673;23;20874;-57
2021/09/02 19:37:41;;;;;;;14.70;13.30;;;16.90;99.90;;;;;;6217905;23;20450;-57
2021/09/02 19:40:10;;;;;;;14.60;13.10;;;16.80;1.00;;;;;;6217406;23;20446;-57
2021/09/02 19:42:37;;;;;;;15.40;13.67;;;16.80;99.90;;;;;;6216733;23;20426;-57